sensor_id;sensor_type;location;lat;lon;timestamp;P1;durP1;ratioP1;P2;durP2;ratioP2
23474;SDS011;11910;52.086;21.066;2023-04-01T00:00:51;48.20;;;32.47;;
23474;SDS011;11910;52.086;21.066;2023-04-01T00:03:18;64.38;;;36.08;;
23474;SDS011;11910;52.086;21.066;2023-04-01T00:05:44;69.32;;;36.92;;
23474;SDS011;11910;52.086;21.066;2023-04-01T00:08:10;60.60;;;34.15;;
23474;SDS011;11910;52.086;21.066;2023-04-01T00:10:36;69.70;;;37.28;;
23474;SDS011;11910;52.086;21.066;2023-04-01T00:13:02;80.75;;;40.67;;
23474;SDS011;11910;52.086;21.066;2023-04-01T00:15:28;52.88;;;32.33;;
23474;SDS011;11910;52.086;21.066;2023-04-01T00:17:54;58.78;;;34.35;;
23474;SDS011;11910;52.086;21.066;2023-04-01T00:20:20;58.20;;;33.78;;
23474;SDS011;11910;52.086;21.066;2023-04-01T00:22:46;53.90;;;33.72;;
23474;SDS011;11910;52.086;21.066;2023-04-01T00:25:11;72.35;;;39.05;;
23474;SDS011;11910;52.086;21.066;2023-04-01T00:27:37;94.30;;;44.30;;
23474;SDS011;11910;52.086;21.066;2023-04-01T00:30:03;74.03;;;38.65;;
23474;SDS011;11910;52.086;21.066;2023-04-01T00:32:29;70.80;;;40.25;;
23474;SDS011;11910;52.086;21.066;2023-04-01T00:34:56;72.57;;;39.88;;
23474;SDS011;11910;52.086;21.066;2023-04-01T00:37:23;86.47;;;40.67;;
23474;SDS011;11910;52.086;21.066;2023-04-01T00:39:49;84.70;;;42.17;;
23474;SDS011;11910;52.086;21.066;2023-04-01T00:42:15;77.25;;;38.92;;
23474;SDS011;11910;52.086;21.066;2023-04-01T00:44:41;74.43;;;38.35;;
23474;SDS011;11910;52.086;21.066;2023-04-01T00:47:07;91.78;;;42.20;;
23474;SDS011;11910;52.086;21.066;2023-04-01T00:49:34;60.38;;;35.03;;
23474;SDS011;11910;52.086;21.066;2023-04-01T00:52:05;70.30;;;37.75;;
23474;SDS011;11910;52.086;21.066;2023-04-01T00:54:35;59.88;;;35.55;;
23474;SDS011;11910;52.086;21.066;2023-04-01T00:59:35;81.28;;;40.60;;
23474;SDS011;11910;52.086;21.066;2023-04-01T01:02:07;71.10;;;37.13;;
23474;SDS011;11910;52.086;21.066;2023-04-01T01:04:35;76.72;;;40.33;;
23474;SDS011;11910;52.086;21.066;2023-04-01T01:07:17;81.55;;;39.95;;
23474;SDS011;11910;52.086;21.066;2023-04-01T01:12:38;85.55;;;41.60;;
23474;SDS011;11910;52.086;21.066;2023-04-01T01:15:15;82.97;;;40.55;;
23474;SDS011;11910;52.086;21.066;2023-04-01T01:23:23;71.57;;;38.70;;
23474;SDS011;11910;52.086;21.066;2023-04-01T01:26:29;75.03;;;39.60;;
23474;SDS011;11910;52.086;21.066;2023-04-01T01:32:29;77.45;;;39.42;;
23474;SDS011;11910;52.086;21.066;2023-04-01T01:35:27;74.07;;;38.40;;
23474;SDS011;11910;52.086;21.066;2023-04-01T01:38:12;64.40;;;34.63;;
23474;SDS011;11910;52.086;21.066;2023-04-01T01:40:42;55.85;;;32.78;;
23474;SDS011;11910;52.086;21.066;2023-04-01T01:43:11;73.28;;;37.90;;
23474;SDS011;11910;52.086;21.066;2023-04-01T01:45:40;68.65;;;37.03;;
23474;SDS011;11910;52.086;21.066;2023-04-01T01:48:11;79.35;;;39.40;;
23474;SDS011;11910;52.086;21.066;2023-04-01T01:50:37;68.97;;;37.40;;
23474;SDS011;11910;52.086;21.066;2023-04-01T01:53:06;56.03;;;34.45;;
23474;SDS011;11910;52.086;21.066;2023-04-01T01:55:34;52.33;;;33.10;;
23474;SDS011;11910;52.086;21.066;2023-04-01T01:58:06;66.20;;;36.42;;
23474;SDS011;11910;52.086;21.066;2023-04-01T02:00:39;59.83;;;36.10;;
23474;SDS011;11910;52.086;21.066;2023-04-01T02:03:08;66.97;;;38.00;;
23474;SDS011;11910;52.086;21.066;2023-04-01T02:05:34;76.47;;;41.20;;
23474;SDS011;11910;52.086;21.066;2023-04-01T02:08:12;79.72;;;38.92;;
23474;SDS011;11910;52.086;21.066;2023-04-01T02:10:42;71.73;;;39.27;;
23474;SDS011;11910;52.086;21.066;2023-04-01T02:13:15;87.00;;;41.50;;
23474;SDS011;11910;52.086;21.066;2023-04-01T02:15:47;66.47;;;37.75;;
23474;SDS011;11910;52.086;21.066;2023-04-01T02:18:14;65.55;;;37.45;;
23474;SDS011;11910;52.086;21.066;2023-04-01T02:20:41;76.78;;;40.03;;
23474;SDS011;11910;52.086;21.066;2023-04-01T02:23:09;74.80;;;40.60;;
23474;SDS011;11910;52.086;21.066;2023-04-01T02:25:36;64.10;;;36.63;;
23474;SDS011;11910;52.086;21.066;2023-04-01T02:28:04;49.20;;;32.35;;
23474;SDS011;11910;52.086;21.066;2023-04-01T02:30:32;60.25;;;35.95;;
23474;SDS011;11910;52.086;21.066;2023-04-01T02:33:00;57.20;;;33.75;;
23474;SDS011;11910;52.086;21.066;2023-04-01T02:35:27;62.13;;;35.72;;
23474;SDS011;11910;52.086;21.066;2023-04-01T02:37:53;67.68;;;38.00;;
23474;SDS011;11910;52.086;21.066;2023-04-01T02:40:19;61.90;;;36.47;;
23474;SDS011;11910;52.086;21.066;2023-04-01T02:42:45;70.75;;;39.15;;
23474;SDS011;11910;52.086;21.066;2023-04-01T02:45:11;67.05;;;37.53;;
23474;SDS011;11910;52.086;21.066;2023-04-01T02:47:37;63.40;;;35.22;;
23474;SDS011;11910;52.086;21.066;2023-04-01T02:50:03;67.70;;;37.47;;
23474;SDS011;11910;52.086;21.066;2023-04-01T02:52:29;74.28;;;37.28;;
23474;SDS011;11910;52.086;21.066;2023-04-01T02:54:55;78.55;;;38.20;;
23474;SDS011;11910;52.086;21.066;2023-04-01T02:57:22;57.20;;;33.10;;
23474;SDS011;11910;52.086;21.066;2023-04-01T02:59:48;72.20;;;37.05;;
23474;SDS011;11910;52.086;21.066;2023-04-01T03:02:14;70.07;;;35.85;;
23474;SDS011;11910;52.086;21.066;2023-04-01T03:04:40;77.00;;;38.95;;
23474;SDS011;11910;52.086;21.066;2023-04-01T03:07:06;57.08;;;34.40;;
23474;SDS011;11910;52.086;21.066;2023-04-01T03:09:32;75.18;;;39.42;;
23474;SDS011;11910;52.086;21.066;2023-04-01T03:11:57;76.90;;;38.90;;
23474;SDS011;11910;52.086;21.066;2023-04-01T03:14:23;72.32;;;40.42;;
23474;SDS011;11910;52.086;21.066;2023-04-01T03:16:48;101.40;;;40.80;;
23474;SDS011;11910;52.086;21.066;2023-04-01T03:19:14;71.80;;;39.35;;
23474;SDS011;11910;52.086;21.066;2023-04-01T03:21:40;64.85;;;35.38;;
23474;SDS011;11910;52.086;21.066;2023-04-01T03:24:06;85.85;;;41.63;;
23474;SDS011;11910;52.086;21.066;2023-04-01T03:26:32;92.43;;;39.78;;
23474;SDS011;11910;52.086;21.066;2023-04-01T03:28:58;83.93;;;43.50;;
23474;SDS011;11910;52.086;21.066;2023-04-01T03:31:24;71.40;;;38.75;;
23474;SDS011;11910;52.086;21.066;2023-04-01T03:36:53;69.43;;;38.55;;
23474;SDS011;11910;52.086;21.066;2023-04-01T03:39:18;93.43;;;45.22;;
23474;SDS011;11910;52.086;21.066;2023-04-01T03:41:45;100.70;;;46.80;;
23474;SDS011;11910;52.086;21.066;2023-04-01T03:44:10;91.32;;;45.38;;
23474;SDS011;11910;52.086;21.066;2023-04-01T03:46:36;68.47;;;38.97;;
23474;SDS011;11910;52.086;21.066;2023-04-01T03:49:02;102.18;;;47.75;;
23474;SDS011;11910;52.086;21.066;2023-04-01T03:51:36;74.38;;;43.25;;
23474;SDS011;11910;52.086;21.066;2023-04-01T03:54:05;85.95;;;46.35;;
23474;SDS011;11910;52.086;21.066;2023-04-01T03:56:32;94.20;;;49.03;;
23474;SDS011;11910;52.086;21.066;2023-04-01T03:58:58;88.82;;;47.85;;
23474;SDS011;11910;52.086;21.066;2023-04-01T04:01:26;95.28;;;49.17;;
23474;SDS011;11910;52.086;21.066;2023-04-01T04:03:51;79.43;;;46.13;;
23474;SDS011;11910;52.086;21.066;2023-04-01T04:06:17;88.15;;;48.72;;
23474;SDS011;11910;52.086;21.066;2023-04-01T04:08:44;86.72;;;47.65;;
23474;SDS011;11910;52.086;21.066;2023-04-01T04:11:10;88.05;;;48.10;;
23474;SDS011;11910;52.086;21.066;2023-04-01T04:13:36;85.15;;;48.75;;
23474;SDS011;11910;52.086;21.066;2023-04-01T04:16:02;99.78;;;50.42;;
23474;SDS011;11910;52.086;21.066;2023-04-01T04:18:28;78.68;;;46.75;;
23474;SDS011;11910;52.086;21.066;2023-04-01T04:20:54;79.03;;;46.47;;
23474;SDS011;11910;52.086;21.066;2023-04-01T04:23:20;81.43;;;46.78;;
23474;SDS011;11910;52.086;21.066;2023-04-01T04:26:19;82.85;;;48.72;;
23474;SDS011;11910;52.086;21.066;2023-04-01T04:28:39;100.78;;;51.58;;
23474;SDS011;11910;52.086;21.066;2023-04-01T04:31:05;79.82;;;46.45;;
23474;SDS011;11910;52.086;21.066;2023-04-01T04:33:31;94.50;;;51.42;;
23474;SDS011;11910;52.086;21.066;2023-04-01T04:35:57;83.32;;;48.67;;
23474;SDS011;11910;52.086;21.066;2023-04-01T04:38:24;88.78;;;50.53;;
23474;SDS011;11910;52.086;21.066;2023-04-01T04:40:50;77.13;;;45.45;;
23474;SDS011;11910;52.086;21.066;2023-04-01T04:43:16;77.43;;;45.70;;
23474;SDS011;11910;52.086;21.066;2023-04-01T04:45:43;77.65;;;44.30;;
23474;SDS011;11910;52.086;21.066;2023-04-01T04:48:09;89.38;;;49.03;;
23474;SDS011;11910;52.086;21.066;2023-04-01T04:50:35;82.88;;;46.58;;
23474;SDS011;11910;52.086;21.066;2023-04-01T04:53:01;77.50;;;44.47;;
23474;SDS011;11910;52.086;21.066;2023-04-01T04:55:27;80.95;;;48.67;;
23474;SDS011;11910;52.086;21.066;2023-04-01T04:57:53;77.75;;;46.90;;
23474;SDS011;11910;52.086;21.066;2023-04-01T05:00:18;86.40;;;48.45;;
23474;SDS011;11910;52.086;21.066;2023-04-01T05:02:44;79.13;;;47.95;;
23474;SDS011;11910;52.086;21.066;2023-04-01T05:05:10;66.63;;;43.63;;
23474;SDS011;11910;52.086;21.066;2023-04-01T05:07:35;66.68;;;42.35;;
23474;SDS011;11910;52.086;21.066;2023-04-01T05:10:01;70.30;;;44.13;;
23474;SDS011;11910;52.086;21.066;2023-04-01T05:12:27;67.78;;;41.30;;
23474;SDS011;11910;52.086;21.066;2023-04-01T05:14:53;66.07;;;41.78;;
23474;SDS011;11910;52.086;21.066;2023-04-01T05:17:18;58.85;;;38.88;;
23474;SDS011;11910;52.086;21.066;2023-04-01T05:19:44;52.80;;;36.08;;
23474;SDS011;11910;52.086;21.066;2023-04-01T05:22:09;47.25;;;33.10;;
23474;SDS011;11910;52.086;21.066;2023-04-01T05:24:35;46.55;;;33.33;;
23474;SDS011;11910;52.086;21.066;2023-04-01T05:27:01;45.28;;;32.22;;
23474;SDS011;11910;52.086;21.066;2023-04-01T05:29:27;41.63;;;30.75;;
23474;SDS011;11910;52.086;21.066;2023-04-01T05:31:53;35.70;;;27.17;;
23474;SDS011;11910;52.086;21.066;2023-04-01T05:34:18;38.72;;;28.92;;
23474;SDS011;11910;52.086;21.066;2023-04-01T05:36:44;38.38;;;29.15;;
23474;SDS011;11910;52.086;21.066;2023-04-01T05:39:10;40.28;;;29.38;;
23474;SDS011;11910;52.086;21.066;2023-04-01T05:41:36;41.75;;;29.02;;
23474;SDS011;11910;52.086;21.066;2023-04-01T05:44:02;37.40;;;28.67;;
23474;SDS011;11910;52.086;21.066;2023-04-01T05:46:28;37.83;;;29.15;;
23474;SDS011;11910;52.086;21.066;2023-04-01T05:48:54;39.58;;;28.38;;
23474;SDS011;11910;52.086;21.066;2023-04-01T05:51:19;35.33;;;26.50;;
23474;SDS011;11910;52.086;21.066;2023-04-01T05:53:45;38.50;;;27.45;;
23474;SDS011;11910;52.086;21.066;2023-04-01T05:56:11;36.30;;;26.48;;
23474;SDS011;11910;52.086;21.066;2023-04-01T05:58:37;35.45;;;26.67;;
23474;SDS011;11910;52.086;21.066;2023-04-01T06:01:04;36.35;;;27.17;;
23474;SDS011;11910;52.086;21.066;2023-04-01T06:03:31;31.85;;;25.13;;
23474;SDS011;11910;52.086;21.066;2023-04-01T06:05:57;33.78;;;26.33;;
23474;SDS011;11910;52.086;21.066;2023-04-01T06:08:23;32.20;;;26.15;;
23474;SDS011;11910;52.086;21.066;2023-04-01T06:10:55;32.63;;;26.08;;
23474;SDS011;11910;52.086;21.066;2023-04-01T06:16:20;31.13;;;25.20;;
23474;SDS011;11910;52.086;21.066;2023-04-01T06:27:42;33.08;;;25.67;;
23474;SDS011;11910;52.086;21.066;2023-04-01T06:33:03;29.17;;;24.25;;
23474;SDS011;11910;52.086;21.066;2023-04-01T06:35:43;29.80;;;25.48;;
23474;SDS011;11910;52.086;21.066;2023-04-01T06:58:21;31.15;;;25.33;;
23474;SDS011;11910;52.086;21.066;2023-04-01T07:00:58;27.50;;;22.65;;
23474;SDS011;11910;52.086;21.066;2023-04-01T07:03:32;28.88;;;24.45;;
23474;SDS011;11910;52.086;21.066;2023-04-01T07:09:24;26.40;;;22.75;;
23474;SDS011;11910;52.086;21.066;2023-04-01T07:11:56;25.85;;;22.33;;
23474;SDS011;11910;52.086;21.066;2023-04-01T07:14:32;25.10;;;22.42;;
23474;SDS011;11910;52.086;21.066;2023-04-01T07:17:15;23.88;;;21.13;;
23474;SDS011;11910;52.086;21.066;2023-04-01T07:19:51;25.13;;;22.35;;
23474;SDS011;11910;52.086;21.066;2023-04-01T07:22:58;24.95;;;22.08;;
23474;SDS011;11910;52.086;21.066;2023-04-01T07:25:21;24.90;;;22.10;;
23474;SDS011;11910;52.086;21.066;2023-04-01T07:27:52;26.98;;;22.48;;
23474;SDS011;11910;52.086;21.066;2023-04-01T07:30:22;24.80;;;21.15;;
23474;SDS011;11910;52.086;21.066;2023-04-01T07:33:11;23.90;;;21.10;;
23474;SDS011;11910;52.086;21.066;2023-04-01T07:36:03;24.65;;;21.88;;
23474;SDS011;11910;52.086;21.066;2023-04-01T07:38:48;25.52;;;21.40;;
23474;SDS011;11910;52.086;21.066;2023-04-01T07:44:13;21.92;;;19.55;;
23474;SDS011;11910;52.086;21.066;2023-04-01T07:47:19;22.08;;;19.67;;
23474;SDS011;11910;52.086;21.066;2023-04-01T07:50:09;19.88;;;17.77;;
23474;SDS011;11910;52.086;21.066;2023-04-01T07:55:32;21.42;;;19.20;;
23474;SDS011;11910;52.086;21.066;2023-04-01T08:01:18;21.67;;;18.17;;
23474;SDS011;11910;52.086;21.066;2023-04-01T08:06:44;21.35;;;18.25;;
23474;SDS011;11910;52.086;21.066;2023-04-01T08:15:23;22.60;;;20.20;;
23474;SDS011;11910;52.086;21.066;2023-04-01T08:20:35;23.38;;;18.98;;
23474;SDS011;11910;52.086;21.066;2023-04-01T08:23:24;22.35;;;19.42;;
23474;SDS011;11910;52.086;21.066;2023-04-01T08:28:55;20.88;;;18.67;;
23474;SDS011;11910;52.086;21.066;2023-04-01T08:31:36;20.85;;;18.65;;
23474;SDS011;11910;52.086;21.066;2023-04-01T08:34:17;19.02;;;17.02;;
23474;SDS011;11910;52.086;21.066;2023-04-01T08:36:57;18.52;;;16.63;;
23474;SDS011;11910;52.086;21.066;2023-04-01T08:39:58;19.45;;;17.35;;
23474;SDS011;11910;52.086;21.066;2023-04-01T08:50:40;16.83;;;14.35;;
23474;SDS011;11910;52.086;21.066;2023-04-01T08:53:28;15.52;;;13.98;;
23474;SDS011;11910;52.086;21.066;2023-04-01T09:10:27;15.32;;;12.27;;
23474;SDS011;11910;52.086;21.066;2023-04-01T09:27:28;16.50;;;14.43;;
23474;SDS011;11910;52.086;21.066;2023-04-01T09:44:58;20.25;;;16.65;;
23474;SDS011;11910;52.086;21.066;2023-04-01T09:47:56;24.27;;;18.25;;
23474;SDS011;11910;52.086;21.066;2023-04-01T10:00:01;24.30;;;18.08;;
23474;SDS011;11910;52.086;21.066;2023-04-01T10:14:17;15.73;;;14.05;;
23474;SDS011;11910;52.086;21.066;2023-04-01T10:39:32;5.95;;;5.35;;
23474;SDS011;11910;52.086;21.066;2023-04-01T10:44:58;4.05;;;3.65;;
23474;SDS011;11910;52.086;21.066;2023-04-01T11:08:06;5.72;;;3.95;;
23474;SDS011;11910;52.086;21.066;2023-04-01T11:30:39;6.25;;;5.60;;
23474;SDS011;11910;52.086;21.066;2023-04-01T11:51:44;22.77;;;20.10;;
23474;SDS011;11910;52.086;21.066;2023-04-01T11:54:29;42.15;;;15.13;;
23474;SDS011;11910;52.086;21.066;2023-04-01T12:08:12;7.35;;;4.97;;
23474;SDS011;11910;52.086;21.066;2023-04-01T12:28:54;5.80;;;5.20;;
23474;SDS011;11910;52.086;21.066;2023-04-01T12:37:21;5.47;;;4.90;;
23474;SDS011;11910;52.086;21.066;2023-04-01T12:45:39;5.32;;;4.63;;
23474;SDS011;11910;52.086;21.066;2023-04-01T13:07:54;5.18;;;4.68;;
23474;SDS011;11910;52.086;21.066;2023-04-01T13:13:14;5.55;;;4.82;;
23474;SDS011;11910;52.086;21.066;2023-04-01T13:23:42;6.15;;;4.88;;
23474;SDS011;11910;52.086;21.066;2023-04-01T13:26:23;5.85;;;5.10;;
23474;SDS011;11910;52.086;21.066;2023-04-01T13:28:53;6.70;;;5.40;;
23474;SDS011;11910;52.086;21.066;2023-04-01T13:39:55;6.72;;;5.45;;
23474;SDS011;11910;52.086;21.066;2023-04-01T13:42:28;7.68;;;5.20;;
23474;SDS011;11910;52.086;21.066;2023-04-01T14:01:25;8.18;;;6.57;;
23474;SDS011;11910;52.086;21.066;2023-04-01T14:26:22;4.53;;;3.40;;
23474;SDS011;11910;52.086;21.066;2023-04-01T14:48:51;4.22;;;3.40;;
23474;SDS011;11910;52.086;21.066;2023-04-01T14:53:59;4.03;;;3.38;;
23474;SDS011;11910;52.086;21.066;2023-04-01T14:59:04;5.93;;;4.07;;
23474;SDS011;11910;52.086;21.066;2023-04-01T15:01:38;5.45;;;4.20;;
23474;SDS011;11910;52.086;21.066;2023-04-01T15:10:06;5.95;;;3.42;;
23474;SDS011;11910;52.086;21.066;2023-04-01T15:18:27;4.40;;;3.42;;
23474;SDS011;11910;52.086;21.066;2023-04-01T15:24:22;4.40;;;2.65;;
23474;SDS011;11910;52.086;21.066;2023-04-01T15:32:54;2.75;;;2.17;;
23474;SDS011;11910;52.086;21.066;2023-04-01T15:41:20;2.35;;;2.00;;
23474;SDS011;11910;52.086;21.066;2023-04-01T15:44:24;2.00;;;1.80;;
23474;SDS011;11910;52.086;21.066;2023-04-01T15:47:06;3.45;;;1.80;;
23474;SDS011;11910;52.086;21.066;2023-04-01T15:52:51;2.40;;;2.00;;
23474;SDS011;11910;52.086;21.066;2023-04-01T16:00:53;2.78;;;2.13;;
23474;SDS011;11910;52.086;21.066;2023-04-01T16:11:43;2.53;;;1.70;;
23474;SDS011;11910;52.086;21.066;2023-04-01T16:14:33;4.32;;;1.85;;
23474;SDS011;11910;52.086;21.066;2023-04-01T16:22:45;3.03;;;1.70;;
23474;SDS011;11910;52.086;21.066;2023-04-01T16:33:20;2.53;;;1.80;;
23474;SDS011;11910;52.086;21.066;2023-04-01T16:39:00;3.30;;;2.35;;
23474;SDS011;11910;52.086;21.066;2023-04-01T16:41:31;3.03;;;2.60;;
23474;SDS011;11910;52.086;21.066;2023-04-01T16:44:16;3.10;;;2.70;;
23474;SDS011;11910;52.086;21.066;2023-04-01T16:46:52;3.10;;;2.67;;
23474;SDS011;11910;52.086;21.066;2023-04-01T16:49:25;3.47;;;3.08;;
23474;SDS011;11910;52.086;21.066;2023-04-01T16:51:57;5.00;;;2.85;;
23474;SDS011;11910;52.086;21.066;2023-04-01T16:59:38;4.65;;;2.38;;
23474;SDS011;11910;52.086;21.066;2023-04-01T17:02:38;2.45;;;2.22;;
23474;SDS011;11910;52.086;21.066;2023-04-01T17:05:11;3.60;;;2.47;;
23474;SDS011;11910;52.086;21.066;2023-04-01T17:22:33;5.97;;;3.13;;
23474;SDS011;11910;52.086;21.066;2023-04-01T17:25:18;4.45;;;3.28;;
23474;SDS011;11910;52.086;21.066;2023-04-01T17:28:01;4.70;;;3.40;;
23474;SDS011;11910;52.086;21.066;2023-04-01T17:30:55;4.80;;;3.38;;
23474;SDS011;11910;52.086;21.066;2023-04-01T17:33:43;6.55;;;3.40;;
23474;SDS011;11910;52.086;21.066;2023-04-01T17:49:45;5.40;;;3.53;;
23474;SDS011;11910;52.086;21.066;2023-04-01T17:52:28;6.88;;;4.28;;
23474;SDS011;11910;52.086;21.066;2023-04-01T18:03:05;6.60;;;4.78;;
23474;SDS011;11910;52.086;21.066;2023-04-01T18:22:40;7.63;;;4.65;;
23474;SDS011;11910;52.086;21.066;2023-04-01T18:27:44;7.05;;;4.32;;
23474;SDS011;11910;52.086;21.066;2023-04-01T18:30:22;7.17;;;4.33;;
23474;SDS011;11910;52.086;21.066;2023-04-01T18:33:04;5.32;;;3.75;;
23474;SDS011;11910;52.086;21.066;2023-04-01T18:38:47;4.55;;;3.60;;
23474;SDS011;11910;52.086;21.066;2023-04-01T18:41:35;4.47;;;3.25;;
23474;SDS011;11910;52.086;21.066;2023-04-01T18:51:52;5.80;;;4.90;;
23474;SDS011;11910;52.086;21.066;2023-04-01T18:54:27;4.63;;;4.20;;
23474;SDS011;11910;52.086;21.066;2023-04-01T18:57:11;7.90;;;4.90;;
23474;SDS011;11910;52.086;21.066;2023-04-01T19:04:57;7.60;;;6.80;;
23474;SDS011;11910;52.086;21.066;2023-04-01T19:10:19;8.27;;;7.28;;
23474;SDS011;11910;52.086;21.066;2023-04-01T19:13:22;9.50;;;7.60;;
23474;SDS011;11910;52.086;21.066;2023-04-01T19:16:13;7.93;;;7.10;;
23474;SDS011;11910;52.086;21.066;2023-04-01T19:21:38;7.18;;;6.47;;
23474;SDS011;11910;52.086;21.066;2023-04-01T19:36:03;9.52;;;8.48;;
23474;SDS011;11910;52.086;21.066;2023-04-01T19:38:37;10.15;;;8.65;;
23474;SDS011;11910;52.086;21.066;2023-04-01T19:41:14;12.38;;;10.32;;
23474;SDS011;11910;52.086;21.066;2023-04-01T19:50:14;13.80;;;12.32;;
23474;SDS011;11910;52.086;21.066;2023-04-01T19:52:44;13.95;;;12.20;;
23474;SDS011;11910;52.086;21.066;2023-04-01T20:00:59;14.60;;;12.23;;
23474;SDS011;11910;52.086;21.066;2023-04-01T20:03:39;13.63;;;12.23;;
23474;SDS011;11910;52.086;21.066;2023-04-01T20:14:14;12.52;;;11.07;;
23474;SDS011;11910;52.086;21.066;2023-04-01T20:19:41;12.68;;;11.38;;
23474;SDS011;11910;52.086;21.066;2023-04-01T20:22:23;12.25;;;10.95;;
23474;SDS011;11910;52.086;21.066;2023-04-01T20:27:53;12.85;;;10.32;;
23474;SDS011;11910;52.086;21.066;2023-04-01T20:30:43;12.50;;;11.20;;
23474;SDS011;11910;52.086;21.066;2023-04-01T20:47:10;14.45;;;12.95;;
23474;SDS011;11910;52.086;21.066;2023-04-01T21:06:17;10.82;;;9.35;;
23474;SDS011;11910;52.086;21.066;2023-04-01T21:25:34;7.47;;;6.57;;
23474;SDS011;11910;52.086;21.066;2023-04-01T21:28:08;6.70;;;5.82;;
23474;SDS011;11910;52.086;21.066;2023-04-01T21:31:11;6.80;;;6.10;;
23474;SDS011;11910;52.086;21.066;2023-04-01T21:39:38;10.25;;;8.82;;
23474;SDS011;11910;52.086;21.066;2023-04-01T21:42:33;12.30;;;10.05;;
23474;SDS011;11910;52.086;21.066;2023-04-01T21:59:34;8.93;;;7.88;;
23474;SDS011;11910;52.086;21.066;2023-04-01T22:07:42;7.97;;;6.10;;
23474;SDS011;11910;52.086;21.066;2023-04-01T22:13:26;7.07;;;6.03;;
23474;SDS011;11910;52.086;21.066;2023-04-01T22:16:05;6.15;;;5.13;;
23474;SDS011;11910;52.086;21.066;2023-04-01T22:18:45;5.53;;;5.03;;
23474;SDS011;11910;52.086;21.066;2023-04-01T22:21:23;6.65;;;5.30;;
23474;SDS011;11910;52.086;21.066;2023-04-01T22:26:59;7.40;;;4.70;;
23474;SDS011;11910;52.086;21.066;2023-04-01T22:32:06;7.93;;;6.82;;
23474;SDS011;11910;52.086;21.066;2023-04-01T22:38:00;7.60;;;6.63;;
23474;SDS011;11910;52.086;21.066;2023-04-01T22:48:37;7.78;;;6.97;;
23474;SDS011;11910;52.086;21.066;2023-04-01T22:51:22;7.88;;;6.78;;
23474;SDS011;11910;52.086;21.066;2023-04-01T22:54:05;7.90;;;7.00;;
23474;SDS011;11910;52.086;21.066;2023-04-01T22:56:51;7.35;;;6.55;;
23474;SDS011;11910;52.086;21.066;2023-04-01T23:02:11;8.93;;;6.88;;
23474;SDS011;11910;52.086;21.066;2023-04-01T23:04:42;8.30;;;6.60;;
23474;SDS011;11910;52.086;21.066;2023-04-01T23:07:21;7.65;;;6.70;;
23474;SDS011;11910;52.086;21.066;2023-04-01T23:09:56;8.18;;;7.13;;
23474;SDS011;11910;52.086;21.066;2023-04-01T23:12:26;6.72;;;6.03;;
23474;SDS011;11910;52.086;21.066;2023-04-01T23:14:54;8.80;;;6.03;;
23474;SDS011;11910;52.086;21.066;2023-04-01T23:30:58;6.35;;;5.25;;
23474;SDS011;11910;52.086;21.066;2023-04-01T23:33:28;6.00;;;5.20;;
23474;SDS011;11910;52.086;21.066;2023-04-01T23:38:38;6.00;;;5.15;;
23474;SDS011;11910;52.086;21.066;2023-04-01T23:41:16;7.30;;;5.47;;
23474;SDS011;11910;52.086;21.066;2023-04-01T23:44:08;5.63;;;4.95;;
23474;SDS011;11910;52.086;21.066;2023-04-01T23:46:37;6.55;;;5.40;;
23474;SDS011;11910;52.086;21.066;2023-04-01T23:49:06;6.78;;;5.50;;
23474;SDS011;11910;52.086;21.066;2023-04-01T23:51:39;5.85;;;5.22;;
23474;SDS011;11910;52.086;21.066;2023-04-01T23:54:18;8.32;;;5.80;;
23474;SDS011;11910;52.086;21.066;2023-04-01T23:56:53;7.88;;;6.50;;
23474;SDS011;11910;52.086;21.066;2023-04-01T23:59:27;8.75;;;7.10;;
